sensor_id;sensor_type;location;lat;lon;timestamp;pressure;altitude;pressure_sealevel;temperature;humidity
74329;BME280;62749;51.982;5.916;2023-02-19T00:00:35;101534.53;;;9.75;97.26
74329;BME280;62749;51.982;5.916;2023-02-19T00:03:04;101540.78;;;9.72;97.35
74329;BME280;62749;51.982;5.916;2023-02-19T00:05:36;101535.41;;;9.75;97.23
74329;BME280;62749;51.982;5.916;2023-02-19T00:08:06;101552.97;;;9.76;97.29
74329;BME280;62749;51.982;5.916;2023-02-19T00:10:36;101539.97;;;9.68;97.13
74329;BME280;62749;51.982;5.916;2023-02-19T00:13:05;101549.69;;;9.68;97.31
74329;BME280;62749;51.982;5.916;2023-02-19T00:15:36;101545.09;;;9.75;97.12
74329;BME280;62749;51.982;5.916;2023-02-19T00:18:05;101541.50;;;9.77;97.15
74329;BME280;62749;51.982;5.916;2023-02-19T00:20:38;101534.59;;;9.73;97.22
74329;BME280;62749;51.982;5.916;2023-02-19T00:23:07;101541.50;;;9.77;97.26
74329;BME280;62749;51.982;5.916;2023-02-19T00:25:37;101541.63;;;9.74;97.14
74329;BME280;62749;51.982;5.916;2023-02-19T00:28:07;101534.50;;;9.76;97.47
74329;BME280;62749;51.982;5.916;2023-02-19T00:30:36;101539.03;;;9.71;97.39
74329;BME280;62749;51.982;5.916;2023-02-19T00:33:06;101538.22;;;9.69;97.49
74329;BME280;62749;51.982;5.916;2023-02-19T00:35:39;101543.44;;;9.71;97.33
74329;BME280;62749;51.982;5.916;2023-02-19T00:38:09;101540.72;;;9.74;97.37
74329;BME280;62749;51.982;5.916;2023-02-19T00:40:41;101531.91;;;9.75;97.34
74329;BME280;62749;51.982;5.916;2023-02-19T00:43:11;101546.91;;;9.73;97.48
74329;BME280;62749;51.982;5.916;2023-02-19T00:45:41;101525.97;;;9.66;97.35
74329;BME280;62749;51.982;5.916;2023-02-19T00:48:14;101536.41;;;9.71;97.56
74329;BME280;62749;51.982;5.916;2023-02-19T00:50:46;101533.72;;;9.73;97.52
74329;BME280;62749;51.982;5.916;2023-02-19T00:53:16;101539.13;;;9.68;97.48
74329;BME280;62749;51.982;5.916;2023-02-19T00:55:45;101539.25;;;9.62;98.08
74329;BME280;62749;51.982;5.916;2023-02-19T00:58:15;101535.81;;;9.60;98.10
74329;BME280;62749;51.982;5.916;2023-02-19T01:00:44;101542.91;;;9.58;98.14
74329;BME280;62749;51.982;5.916;2023-02-19T01:03:14;101537.75;;;9.53;98.41
74329;BME280;62749;51.982;5.916;2023-02-19T01:05:51;101542.19;;;9.51;98.58
74329;BME280;62749;51.982;5.916;2023-02-19T01:08:22;101535.13;;;9.51;98.51
74329;BME280;62749;51.982;5.916;2023-02-19T01:10:52;101542.13;;;9.54;98.74
74329;BME280;62749;51.982;5.916;2023-02-19T01:13:21;101542.28;;;9.48;98.51
74329;BME280;62749;51.982;5.916;2023-02-19T01:16:01;101543.94;;;9.52;98.70
74329;BME280;62749;51.982;5.916;2023-02-19T01:18:31;101545.69;;;9.51;98.52
74329;BME280;62749;51.982;5.916;2023-02-19T01:21:06;101547.34;;;9.56;98.63
74329;BME280;62749;51.982;5.916;2023-02-19T01:23:43;101553.41;;;9.59;98.52
74329;BME280;62749;51.982;5.916;2023-02-19T01:26:15;101556.16;;;9.55;98.47
74329;BME280;62749;51.982;5.916;2023-02-19T01:28:47;101563.31;;;9.49;98.48
74329;BME280;62749;51.982;5.916;2023-02-19T01:31:19;101557.91;;;9.56;98.59
74329;BME280;62749;51.982;5.916;2023-02-19T01:33:51;101550.75;;;9.61;98.24
74329;BME280;62749;51.982;5.916;2023-02-19T01:36:30;101561.31;;;9.61;98.21
74329;BME280;62749;51.982;5.916;2023-02-19T01:39:05;101557.84;;;9.57;98.04
74329;BME280;62749;51.982;5.916;2023-02-19T01:41:37;101562.94;;;9.65;97.82
74329;BME280;62749;51.982;5.916;2023-02-19T01:47:21;101563.81;;;9.65;97.34
74329;BME280;62749;51.982;5.916;2023-02-19T01:49:54;101552.47;;;9.62;97.11
74329;BME280;62749;51.982;5.916;2023-02-19T01:52:32;101562.34;;;9.54;97.00
74329;BME280;62749;51.982;5.916;2023-02-19T01:55:06;101568.34;;;9.60;96.80
74329;BME280;62749;51.982;5.916;2023-02-19T01:57:44;101559.47;;;9.63;96.68
74329;BME280;62749;51.982;5.916;2023-02-19T02:00:16;101566.66;;;9.56;96.78
74329;BME280;62749;51.982;5.916;2023-02-19T02:02:52;101567.50;;;9.58;96.97
74329;BME280;62749;51.982;5.916;2023-02-19T02:05:36;101567.38;;;9.63;96.70
74329;BME280;62749;51.982;5.916;2023-02-19T02:08:11;101564.03;;;9.56;96.95
74329;BME280;62749;51.982;5.916;2023-02-19T02:10:59;101566.53;;;9.62;96.78
74329;BME280;62749;51.982;5.916;2023-02-19T02:13:29;101570.91;;;9.62;96.74
74329;BME280;62749;51.982;5.916;2023-02-19T02:16:16;101567.63;;;9.54;96.99
74329;BME280;62749;51.982;5.916;2023-02-19T02:18:58;101564.25;;;9.48;96.87
74329;BME280;62749;51.982;5.916;2023-02-19T02:27:54;101563.31;;;9.51;97.01
74329;BME280;62749;51.982;5.916;2023-02-19T02:30:36;101565.97;;;9.49;97.20
74329;BME280;62749;51.982;5.916;2023-02-19T02:33:17;101567.03;;;9.42;97.48
74329;BME280;62749;51.982;5.916;2023-02-19T02:35:53;101566.97;;;9.45;97.37
74329;BME280;62749;51.982;5.916;2023-02-19T02:38:29;101569.66;;;9.42;97.42
74329;BME280;62749;51.982;5.916;2023-02-19T02:41:01;101567.88;;;9.43;97.57
74329;BME280;62749;51.982;5.916;2023-02-19T02:43:31;101561.91;;;9.36;97.66
74329;BME280;62749;51.982;5.916;2023-02-19T02:46:04;101576.00;;;9.35;97.73
74329;BME280;62749;51.982;5.916;2023-02-19T02:48:41;101572.38;;;9.39;97.69
74329;BME280;62749;51.982;5.916;2023-02-19T02:51:17;101568.09;;;9.35;97.66
74329;BME280;62749;51.982;5.916;2023-02-19T02:53:53;101578.59;;;9.36;97.56
74329;BME280;62749;51.982;5.916;2023-02-19T02:56:39;101574.22;;;9.35;97.51
74329;BME280;62749;51.982;5.916;2023-02-19T02:59:12;101590.91;;;9.36;97.35
74329;BME280;62749;51.982;5.916;2023-02-19T03:01:50;101581.19;;;9.38;97.24
74329;BME280;62749;51.982;5.916;2023-02-19T03:04:40;101588.25;;;9.36;97.17
74329;BME280;62749;51.982;5.916;2023-02-19T03:07:29;101594.31;;;9.41;96.95
74329;BME280;62749;51.982;5.916;2023-02-19T03:10:06;101589.03;;;9.41;96.97
74329;BME280;62749;51.982;5.916;2023-02-19T03:12:39;101597.81;;;9.42;96.86
74329;BME280;62749;51.982;5.916;2023-02-19T03:15:30;101588.19;;;9.39;96.83
74329;BME280;62749;51.982;5.916;2023-02-19T03:18:17;101596.09;;;9.39;96.85
74329;BME280;62749;51.982;5.916;2023-02-19T03:21:06;101603.94;;;9.42;96.61
74329;BME280;62749;51.982;5.916;2023-02-19T03:23:42;101594.31;;;9.41;96.64
74329;BME280;62749;51.982;5.916;2023-02-19T03:26:27;101609.16;;;9.45;96.72
74329;BME280;62749;51.982;5.916;2023-02-19T03:28:58;101609.34;;;9.36;96.65
74329;BME280;62749;51.982;5.916;2023-02-19T03:31:44;101611.25;;;9.31;96.84
74329;BME280;62749;51.982;5.916;2023-02-19T03:34:23;101609.56;;;9.28;96.94
74329;BME280;62749;51.982;5.916;2023-02-19T03:37:00;101617.09;;;9.44;97.06
74329;BME280;62749;51.982;5.916;2023-02-19T03:39:37;101618.09;;;9.40;96.55
74329;BME280;62749;51.982;5.916;2023-02-19T03:42:20;101611.88;;;9.42;96.34
74329;BME280;62749;51.982;5.916;2023-02-19T03:45:08;101622.34;;;9.45;96.33
74329;BME280;62749;51.982;5.916;2023-02-19T03:47:48;101623.47;;;9.35;96.43
74329;BME280;62749;51.982;5.916;2023-02-19T03:50:26;101628.63;;;9.40;96.10
74329;BME280;62749;51.982;5.916;2023-02-19T03:53:05;101628.47;;;9.47;96.36
74329;BME280;62749;51.982;5.916;2023-02-19T03:55:42;101629.34;;;9.46;96.39
74329;BME280;62749;51.982;5.916;2023-02-19T03:58:21;101636.38;;;9.47;96.57
74329;BME280;62749;51.982;5.916;2023-02-19T04:01:01;101641.66;;;9.47;96.21
74329;BME280;62749;51.982;5.916;2023-02-19T04:03:38;101638.19;;;9.45;96.33
74329;BME280;62749;51.982;5.916;2023-02-19T04:06:16;101643.34;;;9.50;95.98
74329;BME280;62749;51.982;5.916;2023-02-19T04:08:52;101645.91;;;9.51;96.01
74329;BME280;62749;51.982;5.916;2023-02-19T04:11:26;101638.28;;;9.41;96.12
74329;BME280;62749;51.982;5.916;2023-02-19T04:14:03;101652.19;;;9.47;96.01
74329;BME280;62749;51.982;5.916;2023-02-19T04:16:39;101656.41;;;9.55;95.98
74329;BME280;62749;51.982;5.916;2023-02-19T04:19:13;101656.34;;;9.56;95.63
74329;BME280;62749;51.982;5.916;2023-02-19T04:21:49;101659.81;;;9.60;95.39
74329;BME280;62749;51.982;5.916;2023-02-19T04:24:26;101660.78;;;9.56;95.16
74329;BME280;62749;51.982;5.916;2023-02-19T04:26:58;101656.41;;;9.55;95.27
74329;BME280;62749;51.982;5.916;2023-02-19T04:29:28;101666.13;;;9.52;95.12
74329;BME280;62749;51.982;5.916;2023-02-19T04:31:58;101666.06;;;9.56;95.28
74329;BME280;62749;51.982;5.916;2023-02-19T04:34:28;101667.00;;;9.53;95.52
74329;BME280;62749;51.982;5.916;2023-02-19T04:37:00;101666.19;;;9.49;95.59
74329;BME280;62749;51.982;5.916;2023-02-19T04:39:30;101671.94;;;9.29;95.70
74329;BME280;62749;51.982;5.916;2023-02-19T04:41:59;101673.47;;;9.38;95.91
74329;BME280;62749;51.982;5.916;2023-02-19T04:44:29;101674.31;;;9.42;95.64
74329;BME280;62749;51.982;5.916;2023-02-19T04:46:59;101680.50;;;9.39;95.47
74329;BME280;62749;51.982;5.916;2023-02-19T04:49:29;101691.19;;;9.33;95.33
74329;BME280;62749;51.982;5.916;2023-02-19T04:52:02;101691.22;;;9.31;95.43
74329;BME280;62749;51.982;5.916;2023-02-19T04:54:31;101693.75;;;9.36;95.63
74329;BME280;62749;51.982;5.916;2023-02-19T04:57:01;101704.28;;;9.36;95.05
74329;BME280;62749;51.982;5.916;2023-02-19T04:59:32;101700.03;;;9.30;95.06
74329;BME280;62749;51.982;5.916;2023-02-19T05:02:01;101709.63;;;9.34;95.21
74329;BME280;62749;51.982;5.916;2023-02-19T05:04:31;101717.47;;;9.36;95.31
74329;BME280;62749;51.982;5.916;2023-02-19T05:07:03;101721.06;;;9.35;95.41
74329;BME280;62749;51.982;5.916;2023-02-19T05:09:33;101725.81;;;9.17;95.36
74329;BME280;62749;51.982;5.916;2023-02-19T05:12:03;101730.03;;;9.25;95.54
74329;BME280;62749;51.982;5.916;2023-02-19T05:14:33;101729.91;;;9.31;95.61
74329;BME280;62749;51.982;5.916;2023-02-19T05:17:02;101730.66;;;9.36;95.51
74329;BME280;62749;51.982;5.916;2023-02-19T05:19:32;101734.16;;;9.38;95.62
74329;BME280;62749;51.982;5.916;2023-02-19T05:22:04;101736.03;;;9.33;95.61
74329;BME280;62749;51.982;5.916;2023-02-19T05:24:34;101737.88;;;9.29;95.69
74329;BME280;62749;51.982;5.916;2023-02-19T05:27:04;101738.72;;;9.30;95.59
74329;BME280;62749;51.982;5.916;2023-02-19T05:29:34;101738.56;;;9.36;95.55
74329;BME280;62749;51.982;5.916;2023-02-19T05:32:04;101738.56;;;9.36;95.62
74329;BME280;62749;51.982;5.916;2023-02-19T05:34:36;101744.78;;;9.35;95.51
74329;BME280;62749;51.982;5.916;2023-02-19T05:37:08;101748.28;;;9.35;95.52
74329;BME280;62749;51.982;5.916;2023-02-19T05:39:38;101747.34;;;9.38;95.26
74329;BME280;62749;51.982;5.916;2023-02-19T05:42:08;101754.41;;;9.36;95.23
74329;BME280;62749;51.982;5.916;2023-02-19T05:44:38;101748.28;;;9.35;95.11
74329;BME280;62749;51.982;5.916;2023-02-19T05:47:08;101749.94;;;9.40;95.04
74329;BME280;62749;51.982;5.916;2023-02-19T05:49:38;101745.63;;;9.35;95.14
74329;BME280;62749;51.982;5.916;2023-02-19T05:52:10;101751.97;;;9.28;95.29
74329;BME280;62749;51.982;5.916;2023-02-19T05:54:40;101750.06;;;9.35;95.58
74329;BME280;62749;51.982;5.916;2023-02-19T05:57:11;101751.06;;;9.28;95.28
74329;BME280;62749;51.982;5.916;2023-02-19T05:59:41;101756.28;;;9.31;95.16
74329;BME280;62749;51.982;5.916;2023-02-19T06:02:11;101759.81;;;9.30;95.03
74329;BME280;62749;51.982;5.916;2023-02-19T06:04:41;101766.94;;;9.26;95.14
74329;BME280;62749;51.982;5.916;2023-02-19T06:07:13;101764.19;;;9.31;95.07
74329;BME280;62749;51.982;5.916;2023-02-19T06:09:43;101771.31;;;9.27;95.34
74329;BME280;62749;51.982;5.916;2023-02-19T06:12:13;101780.22;;;9.20;95.07
74329;BME280;62749;51.982;5.916;2023-02-19T06:14:43;101782.84;;;9.21;95.63
74329;BME280;62749;51.982;5.916;2023-02-19T06:17:14;101786.25;;;9.27;95.70
74329;BME280;62749;51.982;5.916;2023-02-19T06:19:53;101785.34;;;9.29;95.10
74329;BME280;62749;51.982;5.916;2023-02-19T06:22:28;101782.03;;;9.18;95.34
74329;BME280;62749;51.982;5.916;2023-02-19T06:25:00;101790.66;;;9.26;95.10
74329;BME280;62749;51.982;5.916;2023-02-19T06:27:30;101795.06;;;9.26;95.09
74329;BME280;62749;51.982;5.916;2023-02-19T06:30:00;101805.69;;;9.23;95.29
74329;BME280;62749;51.982;5.916;2023-02-19T06:32:29;101807.38;;;9.25;95.07
74329;BME280;62749;51.982;5.916;2023-02-19T06:35:01;101818.72;;;9.29;95.25
74329;BME280;62749;51.982;5.916;2023-02-19T06:37:36;101823.22;;;9.24;95.40
74329;BME280;62749;51.982;5.916;2023-02-19T06:40:07;101821.53;;;9.21;95.30
74329;BME280;62749;51.982;5.916;2023-02-19T06:42:37;101830.09;;;9.32;94.94
74329;BME280;62749;51.982;5.916;2023-02-19T06:45:07;101832.75;;;9.31;94.71
74329;BME280;62749;51.982;5.916;2023-02-19T06:47:37;101825.81;;;9.27;94.35
74329;BME280;62749;51.982;5.916;2023-02-19T06:50:07;101821.38;;;9.29;94.37
74329;BME280;62749;51.982;5.916;2023-02-19T06:52:40;101823.16;;;9.27;94.64
74329;BME280;62749;51.982;5.916;2023-02-19T06:55:10;101833.91;;;9.17;94.70
74329;BME280;62749;51.982;5.916;2023-02-19T06:57:39;101833.84;;;9.20;95.06
74329;BME280;62749;51.982;5.916;2023-02-19T07:00:10;101831.25;;;9.17;95.21
74329;BME280;62749;51.982;5.916;2023-02-19T07:02:40;101842.66;;;9.18;95.02
74329;BME280;62749;51.982;5.916;2023-02-19T07:05:10;101845.41;;;9.13;94.59
74329;BME280;62749;51.982;5.916;2023-02-19T07:07:47;101849.66;;;9.20;94.74
74329;BME280;62749;51.982;5.916;2023-02-19T07:10:17;101857.63;;;9.17;94.46
74329;BME280;62749;51.982;5.916;2023-02-19T07:12:47;101856.00;;;9.10;94.92
74329;BME280;62749;51.982;5.916;2023-02-19T07:15:17;101863.13;;;9.05;94.87
74329;BME280;62749;51.982;5.916;2023-02-19T07:17:46;101868.22;;;9.14;94.74
74329;BME280;62749;51.982;5.916;2023-02-19T07:20:16;101879.63;;;9.16;94.95
74329;BME280;62749;51.982;5.916;2023-02-19T07:23:05;101878.78;;;9.14;95.04
74329;BME280;62749;51.982;5.916;2023-02-19T07:25:36;101883.06;;;9.20;95.12
74329;BME280;62749;51.982;5.916;2023-02-19T07:28:07;101889.97;;;9.26;94.97
74329;BME280;62749;51.982;5.916;2023-02-19T07:30:37;101895.44;;;9.16;94.81
74329;BME280;62749;51.982;5.916;2023-02-19T07:33:06;101902.53;;;9.13;94.91
74329;BME280;62749;51.982;5.916;2023-02-19T07:35:36;101904.31;;;9.11;95.10
74329;BME280;62749;51.982;5.916;2023-02-19T07:38:09;101912.06;;;9.21;95.05
74329;BME280;62749;51.982;5.916;2023-02-19T07:40:39;101916.56;;;9.13;95.08
74329;BME280;62749;51.982;5.916;2023-02-19T07:43:10;101907.06;;;9.06;95.01
74329;BME280;62749;51.982;5.916;2023-02-19T07:45:39;101915.94;;;9.00;95.45
74329;BME280;62749;51.982;5.916;2023-02-19T07:48:09;101928.28;;;8.98;95.82
74329;BME280;62749;51.982;5.916;2023-02-19T07:50:39;101928.31;;;8.97;95.87
74329;BME280;62749;51.982;5.916;2023-02-19T07:53:11;101933.38;;;9.08;95.65
74329;BME280;62749;51.982;5.916;2023-02-19T07:55:41;101926.34;;;9.06;95.71
74329;BME280;62749;51.982;5.916;2023-02-19T07:58:10;101929.03;;;9.05;95.49
74329;BME280;62749;51.982;5.916;2023-02-19T08:00:40;101935.81;;;9.18;95.41
74329;BME280;62749;51.982;5.916;2023-02-19T08:03:10;101929.78;;;9.12;94.85
74329;BME280;62749;51.982;5.916;2023-02-19T08:05:41;101929.75;;;9.15;95.03
74329;BME280;62749;51.982;5.916;2023-02-19T08:08:14;101938.38;;;9.23;94.75
74329;BME280;62749;51.982;5.916;2023-02-19T08:10:44;101931.41;;;9.20;94.22
74329;BME280;62749;51.982;5.916;2023-02-19T08:13:28;101932.25;;;9.23;94.45
74329;BME280;62749;51.982;5.916;2023-02-19T08:16:10;101929.56;;;9.24;94.36
74329;BME280;62749;51.982;5.916;2023-02-19T08:18:43;101945.44;;;9.21;94.06
74329;BME280;62749;51.982;5.916;2023-02-19T08:21:13;101950.00;;;9.11;94.38
74329;BME280;62749;51.982;5.916;2023-02-19T08:23:50;101955.13;;;9.20;94.56
74329;BME280;62749;51.982;5.916;2023-02-19T08:26:22;101957.69;;;9.25;94.64
74329;BME280;62749;51.982;5.916;2023-02-19T08:28:51;101955.81;;;9.30;94.39
74329;BME280;62749;51.982;5.916;2023-02-19T08:31:21;101958.44;;;9.32;94.29
74329;BME280;62749;51.982;5.916;2023-02-19T08:33:50;101957.50;;;9.34;93.82
74329;BME280;62749;51.982;5.916;2023-02-19T08:36:20;101971.63;;;9.30;93.87
74329;BME280;62749;51.982;5.916;2023-02-19T08:38:52;101976.91;;;9.30;93.79
74329;BME280;62749;51.982;5.916;2023-02-19T08:41:22;101968.28;;;9.22;93.86
74329;BME280;62749;51.982;5.916;2023-02-19T08:43:51;101984.81;;;9.32;93.96
74329;BME280;62749;51.982;5.916;2023-02-19T08:46:21;101988.06;;;9.46;94.00
74329;BME280;62749;51.982;5.916;2023-02-19T08:48:51;101993.34;;;9.46;93.56
74329;BME280;62749;51.982;5.916;2023-02-19T08:51:21;101991.56;;;9.48;93.02
74329;BME280;62749;51.982;5.916;2023-02-19T08:53:53;102002.91;;;9.52;92.58
74329;BME280;62749;51.982;5.916;2023-02-19T08:56:23;102006.38;;;9.56;92.59
74329;BME280;62749;51.982;5.916;2023-02-19T08:58:52;102011.50;;;9.62;92.01
74329;BME280;62749;51.982;5.916;2023-02-19T09:01:25;102009.72;;;9.64;92.17
74329;BME280;62749;51.982;5.916;2023-02-19T09:03:55;102001.94;;;9.58;92.29
74329;BME280;62749;51.982;5.916;2023-02-19T09:06:25;101999.25;;;9.61;92.24
74329;BME280;62749;51.982;5.916;2023-02-19T09:08:57;101999.34;;;9.55;92.07
74329;BME280;62749;51.982;5.916;2023-02-19T09:11:27;102008.03;;;9.61;91.89
74329;BME280;62749;51.982;5.916;2023-02-19T09:13:59;102001.94;;;9.58;91.83
74329;BME280;62749;51.982;5.916;2023-02-19T09:16:31;102011.56;;;9.60;92.60
74329;BME280;62749;51.982;5.916;2023-02-19T09:19:01;102013.53;;;9.49;92.65
74329;BME280;62749;51.982;5.916;2023-02-19T09:21:30;102013.34;;;9.60;92.89
74329;BME280;62749;51.982;5.916;2023-02-19T09:24:03;102027.38;;;9.60;92.48
74329;BME280;62749;51.982;5.916;2023-02-19T09:26:58;102032.66;;;9.60;93.29
74329;BME280;62749;51.982;5.916;2023-02-19T09:29:28;102038.88;;;9.58;93.06
74329;BME280;62749;51.982;5.916;2023-02-19T09:32:01;102049.38;;;9.59;92.67
74329;BME280;62749;51.982;5.916;2023-02-19T09:34:31;102045.00;;;9.58;92.63
74329;BME280;62749;51.982;5.916;2023-02-19T09:37:02;102053.81;;;9.57;92.89
74329;BME280;62749;51.982;5.916;2023-02-19T09:39:38;102046.78;;;9.58;92.59
74329;BME280;62749;51.982;5.916;2023-02-19T09:42:13;102054.69;;;9.58;92.51
74329;BME280;62749;51.982;5.916;2023-02-19T09:44:46;102071.38;;;9.60;92.71
74329;BME280;62749;51.982;5.916;2023-02-19T09:47:19;102090.66;;;9.62;92.72
74329;BME280;62749;51.982;5.916;2023-02-19T09:49:54;102097.84;;;9.55;92.85
74329;BME280;62749;51.982;5.916;2023-02-19T09:52:33;102096.88;;;9.59;92.96
74329;BME280;62749;51.982;5.916;2023-02-19T09:55:30;102094.38;;;9.51;92.75
74329;BME280;62749;51.982;5.916;2023-02-19T09:58:21;102098.66;;;9.59;92.19
74329;BME280;62749;51.982;5.916;2023-02-19T10:00:59;102107.25;;;9.70;92.23
74329;BME280;62749;51.982;5.916;2023-02-19T10:03:36;102118.66;;;9.71;92.71
74329;BME280;62749;51.982;5.916;2023-02-19T10:06:15;102121.31;;;9.72;92.30
74329;BME280;62749;51.982;5.916;2023-02-19T10:08:51;102130.84;;;9.79;92.19
74329;BME280;62749;51.982;5.916;2023-02-19T10:11:25;102132.59;;;9.80;91.98
74329;BME280;62749;51.982;5.916;2023-02-19T10:14:03;102132.63;;;9.77;91.80
74329;BME280;62749;51.982;5.916;2023-02-19T10:16:39;102129.91;;;9.83;91.54
74329;BME280;62749;51.982;5.916;2023-02-19T10:19:11;102154.53;;;9.82;91.75
74329;BME280;62749;51.982;5.916;2023-02-19T10:21:43;102149.31;;;9.81;91.85
74329;BME280;62749;51.982;5.916;2023-02-19T10:24:20;102146.69;;;9.79;91.24
74329;BME280;62749;51.982;5.916;2023-02-19T10:26:53;102151.94;;;9.79;90.80
74329;BME280;62749;51.982;5.916;2023-02-19T10:29:22;102157.16;;;9.84;90.78
74329;BME280;62749;51.982;5.916;2023-02-19T10:32:11;102163.31;;;9.83;91.13
74329;BME280;62749;51.982;5.916;2023-02-19T10:34:42;102165.28;;;9.72;90.79
74329;BME280;62749;51.982;5.916;2023-02-19T10:37:14;102176.66;;;9.75;91.36
74329;BME280;62749;51.982;5.916;2023-02-19T10:39:48;102179.16;;;9.85;91.10
74329;BME280;62749;51.982;5.916;2023-02-19T10:42:22;102172.09;;;9.85;90.91
74329;BME280;62749;51.982;5.916;2023-02-19T10:44:54;102181.97;;;9.74;89.67
74329;BME280;62749;51.982;5.916;2023-02-19T10:47:29;102183.81;;;9.67;88.75
74329;BME280;62749;51.982;5.916;2023-02-19T10:50:02;102183.91;;;9.62;88.95
74329;BME280;62749;51.982;5.916;2023-02-19T10:52:34;102181.34;;;9.58;89.44
74329;BME280;62749;51.982;5.916;2023-02-19T10:55:20;102193.53;;;9.65;89.89
74329;BME280;62749;51.982;5.916;2023-02-19T10:57:57;102193.84;;;9.45;90.22
74329;BME280;62749;51.982;5.916;2023-02-19T11:00:43;102189.53;;;9.39;90.64
74329;BME280;62749;51.982;5.916;2023-02-19T11:03:18;102204.38;;;9.45;90.65
74329;BME280;62749;51.982;5.916;2023-02-19T11:05:59;102201.00;;;9.36;89.83
74329;BME280;62749;51.982;5.916;2023-02-19T11:08:33;102185.06;;;9.43;90.49
74329;BME280;62749;51.982;5.916;2023-02-19T11:11:08;102177.88;;;9.52;90.57
74329;BME280;62749;51.982;5.916;2023-02-19T11:13:41;102175.22;;;9.56;90.95
74329;BME280;62749;51.982;5.916;2023-02-19T11:16:11;102166.31;;;9.61;90.66
74329;BME280;62749;51.982;5.916;2023-02-19T11:18:44;102171.56;;;9.64;90.51
74329;BME280;62749;51.982;5.916;2023-02-19T11:21:25;102173.22;;;9.68;89.84
74329;BME280;62749;51.982;5.916;2023-02-19T11:23:59;102178.75;;;9.55;89.84
74329;BME280;62749;51.982;5.916;2023-02-19T11:26:33;102182.13;;;9.64;90.48
74329;BME280;62749;51.982;5.916;2023-02-19T11:29:19;102182.28;;;9.55;91.26
74329;BME280;62749;51.982;5.916;2023-02-19T11:31:51;102185.75;;;9.56;91.71
74329;BME280;62749;51.982;5.916;2023-02-19T11:34:28;102185.84;;;9.51;91.96
74329;BME280;62749;51.982;5.916;2023-02-19T11:37:11;102186.88;;;9.41;91.84
74329;BME280;62749;51.982;5.916;2023-02-19T11:39:43;102187.66;;;9.46;91.93
74329;BME280;62749;51.982;5.916;2023-02-19T11:42:29;102190.16;;;9.57;91.80
74329;BME280;62749;51.982;5.916;2023-02-19T11:45:31;102194.41;;;9.64;91.39
74329;BME280;62749;51.982;5.916;2023-02-19T11:48:25;102207.38;;;9.79;91.27
74329;BME280;62749;51.982;5.916;2023-02-19T11:51:18;102202.69;;;9.97;90.78
74329;BME280;62749;51.982;5.916;2023-02-19T11:54:09;102213.19;;;10.02;90.56
74329;BME280;62749;51.982;5.916;2023-02-19T11:56:49;102197.16;;;10.11;90.68
74329;BME280;62749;51.982;5.916;2023-02-19T11:59:36;102194.00;;;9.90;88.90
74329;BME280;62749;51.982;5.916;2023-02-19T12:02:30;102197.34;;;10.02;88.51
74329;BME280;62749;51.982;5.916;2023-02-19T12:05:18;102190.19;;;10.08;88.10
74329;BME280;62749;51.982;5.916;2023-02-19T12:08:26;102193.88;;;9.96;87.53
74329;BME280;62749;51.982;5.916;2023-02-19T12:11:13;102198.41;;;9.91;88.47
74329;BME280;62749;51.982;5.916;2023-02-19T12:14:11;102201.13;;;9.85;88.41
74329;BME280;62749;51.982;5.916;2023-02-19T12:16:52;102199.50;;;9.78;88.08
74329;BME280;62749;51.982;5.916;2023-02-19T12:19:46;102205.59;;;9.81;87.24
74329;BME280;62749;51.982;5.916;2023-02-19T12:22:27;102204.72;;;9.81;88.21
74329;BME280;62749;51.982;5.916;2023-02-19T12:28:21;102213.66;;;9.72;88.03
74329;BME280;62749;51.982;5.916;2023-02-19T12:31:16;102205.00;;;9.62;89.37
74329;BME280;62749;51.982;5.916;2023-02-19T12:37:13;102210.25;;;9.64;89.69
74329;BME280;62749;51.982;5.916;2023-02-19T12:39:58;102212.88;;;9.64;89.23
74329;BME280;62749;51.982;5.916;2023-02-19T12:42:51;102195.06;;;9.78;89.11
74329;BME280;62749;51.982;5.916;2023-02-19T12:45:30;102203.88;;;9.77;88.31
74329;BME280;62749;51.982;5.916;2023-02-19T12:48:15;102209.97;;;9.82;88.28
74329;BME280;62749;51.982;5.916;2023-02-19T12:51:00;102223.38;;;9.68;88.07
74329;BME280;62749;51.982;5.916;2023-02-19T12:53:39;102222.34;;;9.77;88.56
74329;BME280;62749;51.982;5.916;2023-02-19T12:56:16;102205.50;;;9.86;88.76
74329;BME280;62749;51.982;5.916;2023-02-19T12:58:51;102221.31;;;9.89;88.42
74329;BME280;62749;51.982;5.916;2023-02-19T13:01:26;102227.44;;;9.90;86.82
74329;BME280;62749;51.982;5.916;2023-02-19T13:04:15;102231.94;;;9.85;88.00
74329;BME280;62749;51.982;5.916;2023-02-19T13:06:52;102221.31;;;9.88;89.13
74329;BME280;62749;51.982;5.916;2023-02-19T13:09:32;102220.38;;;9.92;88.29
74329;BME280;62749;51.982;5.916;2023-02-19T13:12:10;102231.78;;;9.94;88.42
74329;BME280;62749;51.982;5.916;2023-02-19T13:14:56;102228.38;;;9.87;89.34
74329;BME280;62749;51.982;5.916;2023-02-19T13:17:36;102243.34;;;9.85;89.21
74329;BME280;62749;51.982;5.916;2023-02-19T13:20:17;102257.81;;;9.61;88.17
74329;BME280;62749;51.982;5.916;2023-02-19T13:22:59;102260.63;;;9.48;89.50
74329;BME280;62749;51.982;5.916;2023-02-19T13:26:05;102263.41;;;9.36;90.35
74329;BME280;62749;51.982;5.916;2023-02-19T13:28:58;102270.56;;;9.29;90.82
74329;BME280;62749;51.982;5.916;2023-02-19T13:31:55;102264.53;;;9.19;92.38
74329;BME280;62749;51.982;5.916;2023-02-19T13:34:50;102269.78;;;9.19;92.48
74329;BME280;62749;51.982;5.916;2023-02-19T13:37:24;102270.72;;;9.15;92.23
74329;BME280;62749;51.982;5.916;2023-02-19T13:39:56;102283.00;;;9.16;92.97
74329;BME280;62749;51.982;5.916;2023-02-19T13:42:32;102293.53;;;9.18;92.72
74329;BME280;62749;51.982;5.916;2023-02-19T13:45:05;102292.63;;;9.19;92.43
74329;BME280;62749;51.982;5.916;2023-02-19T13:47:47;102285.59;;;9.23;92.80
74329;BME280;62749;51.982;5.916;2023-02-19T13:50:21;102289.09;;;9.20;92.38
74329;BME280;62749;51.982;5.916;2023-02-19T13:52:53;102278.81;;;9.01;91.95
74329;BME280;62749;51.982;5.916;2023-02-19T13:55:48;102285.84;;;8.99;92.56
74329;BME280;62749;51.982;5.916;2023-02-19T14:04:47;102294.47;;;9.12;92.45